Time;durP1;ratioP1;P1;durP2;ratioP2;P2;SDS_P1;SDS_P2;PMS_P1;PMS_P2;Temp;Humidity;BMP_temperature;BMP_pressure;BME280_temperature;BME280_humidity;BME280_pressure;Samples;Min_cycle;Max_cycle;Signal;HPM_P1;HPM_P2
2021/12/10 00:00:28;;;;;;;100.93;48.00;;;1.50;99.90;;;;;;2092578;28;20017;-73
2021/12/10 00:01:37;;;;;;;105.07;47.50;;;1.50;99.90;;;;;;2098203;28;20402;-73
2021/12/10 00:02:39;;;;;;;102.13;46.50;;;1.50;99.90;;;;;;2101001;28;20073;-73
2021/12/10 00:03:52;;;;;;;104.15;47.45;;;1.50;99.90;;;;;;2100837;28;20024;-73
2021/12/10 00:04:52;;;;;;;105.38;47.03;;;1.50;99.90;;;;;;2102290;28;20032;-73
2021/12/10 00:06:18;;;;;;;99.85;45.70;;;1.50;99.90;;;;;;2094169;28;20024;-73
2021/12/10 00:07:22;;;;;;;98.32;45.25;;;1.50;99.90;;;;;;2095715;28;20504;-74
2021/12/10 00:08:25;;;;;;;99.68;45.58;;;1.50;99.90;;;;;;2093689;28;20433;-74
2021/12/10 00:09:34;;;;;;;88.80;43.67;;;1.50;99.90;;;;;;2093454;28;20112;-73
2021/12/10 00:10:38;;;;;;;103.40;45.85;;;1.50;99.90;;;;;;2100345;28;20488;-73
2021/12/10 00:11:44;;;;;;;101.90;45.22;;;1.50;99.90;;;;;;2100372;28;20024;-73
2021/12/10 00:12:50;;;;;;;102.80;46.50;;;1.50;99.90;;;;;;2099952;28;20140;-73
2021/12/10 00:13:51;;;;;;;108.13;49.45;;;1.50;99.90;;;;;;2101835;28;20028;-73
2021/12/10 00:14:53;;;;;;;99.90;45.40;;;1.50;99.90;;;;;;2098008;28;20071;-72
2021/12/10 00:15:55;;;;;;;103.70;47.58;;;1.50;99.90;;;;;;2102025;28;20107;-73
2021/12/10 00:16:57;;;;;;;111.97;49.63;;;1.50;99.90;;;;;;2097560;28;20507;-72
2021/12/10 00:18:01;;;;;;;104.60;47.20;;;1.50;99.90;;;;;;2102672;28;20456;-72
2021/12/10 00:19:15;;;;;;;104.53;47.13;;;1.50;99.90;;;;;;2094745;28;20563;-73
2021/12/10 00:20:18;;;;;;;107.47;47.85;;;1.50;99.90;;;;;;2094388;28;20036;-74
2021/12/10 00:21:24;;;;;;;96.55;45.00;;;1.50;99.90;;;;;;2093647;28;20086;-74
2021/12/10 00:22:36;;;;;;;98.40;45.05;;;1.50;99.90;;;;;;2094593;28;20024;-73
2021/12/10 00:23:36;;;;;;;95.35;44.25;;;1.50;99.90;;;;;;2099989;28;20097;-73
2021/12/10 00:24:39;;;;;;;97.40;45.10;;;1.50;99.90;;;;;;2100257;28;20024;-73
2021/12/10 00:25:45;;;;;;;97.25;45.00;;;1.50;99.90;;;;;;2100038;28;20031;-73
2021/12/10 00:26:46;;;;;;;101.80;45.65;;;1.50;99.90;;;;;;2099586;28;20029;-71
2021/12/10 00:27:51;;;;;;;101.95;45.25;;;1.50;99.90;;;;;;2110211;28;20027;-72
2021/12/10 00:29:00;;;;;;;95.57;43.88;;;1.50;99.90;;;;;;2094014;28;20057;-73
2021/12/10 00:30:14;;;;;;;99.05;44.45;;;1.50;99.90;;;;;;2096620;28;20028;-73
2021/12/10 00:31:44;;;;;;;97.05;44.38;;;1.50;99.90;;;;;;2095951;28;20070;-73
2021/12/10 00:32:54;;;;;;;93.40;42.05;;;1.60;99.90;;;;;;2097699;28;20017;-74
2021/12/10 00:34:03;;;;;;;96.97;43.17;;;1.60;99.90;;;;;;2097370;28;20130;-74
2021/12/10 00:35:10;;;;;;;89.85;41.58;;;1.60;99.90;;;;;;2090860;28;20075;-74
2021/12/10 00:36:10;;;;;;;88.93;42.72;;;1.60;99.90;;;;;;2097320;28;20024;-72
2021/12/10 00:37:14;;;;;;;93.80;43.70;;;1.50;99.90;;;;;;2091394;28;20033;-72
2021/12/10 00:38:16;;;;;;;96.43;43.42;;;1.60;99.90;;;;;;2097953;28;20027;-74
2021/12/10 00:39:24;;;;;;;89.63;41.42;;;1.60;99.90;;;;;;2097947;28;20017;-72
2021/12/10 00:40:26;;;;;;;90.00;41.72;;;1.60;99.90;;;;;;2096192;28;20563;-73
2021/12/10 00:41:27;;;;;;;91.28;43.10;;;1.60;99.90;;;;;;2085559;28;20029;-74
2021/12/10 00:42:32;;;;;;;88.35;41.10;;;1.60;99.90;;;;;;2079092;28;20029;-73
2021/12/10 00:43:35;;;;;;;88.50;41.72;;;1.60;99.90;;;;;;2080688;28;20096;-74
2021/12/10 00:44:36;;;;;;;87.28;40.67;;;1.60;99.90;;;;;;2095034;28;20019;-74
2021/12/10 00:45:37;;;;;;;85.10;40.92;;;1.60;99.90;;;;;;2101531;28;20047;-73
2021/12/10 00:46:38;;;;;;;83.55;40.42;;;1.60;99.90;;;;;;2102990;28;20013;-74
2021/12/10 00:47:40;;;;;;;91.15;42.22;;;1.60;99.90;;;;;;2094297;28;20024;-73
2021/12/10 00:48:40;;;;;;;85.90;41.03;;;1.60;99.90;;;;;;2094098;28;20063;-73
2021/12/10 00:49:42;;;;;;;84.70;39.97;;;1.60;99.90;;;;;;2096144;28;20020;-72
2021/12/10 00:50:48;;;;;;;85.68;40.90;;;1.60;99.90;;;;;;2093761;28;20082;-73
2021/12/10 00:51:49;;;;;;;83.35;39.70;;;1.60;99.90;;;;;;2080174;28;20958;-73
2021/12/10 00:52:51;;;;;;;95.95;44.50;;;1.60;99.90;;;;;;2086758;28;20032;-75
2021/12/10 00:53:53;;;;;;;88.78;42.47;;;1.60;99.90;;;;;;2097724;28;20115;-73
2021/12/10 00:54:54;;;;;;;88.68;41.55;;;1.60;99.90;;;;;;2092315;28;20086;-75
2021/12/10 00:55:54;;;;;;;89.82;42.63;;;1.60;99.90;;;;;;2096238;28;20100;-73
2021/12/10 00:56:55;;;;;;;86.57;42.63;;;1.60;99.90;;;;;;2093732;28;20075;-72
2021/12/10 00:57:58;;;;;;;86.68;41.17;;;1.60;99.90;;;;;;2098421;28;20031;-71
2021/12/10 00:58:59;;;;;;;78.20;38.97;;;1.60;99.90;;;;;;2093662;28;20037;-73
2021/12/10 00:59:59;;;;;;;90.47;41.95;;;1.60;99.90;;;;;;2100721;28;20040;-71
2021/12/10 01:01:05;;;;;;;84.90;41.20;;;1.50;99.90;;;;;;2094469;28;20575;-72
2021/12/10 01:02:09;;;;;;;88.03;41.35;;;1.60;99.90;;;;;;2092726;28;20088;-72
2021/12/10 01:03:13;;;;;;;87.20;41.20;;;1.50;99.90;;;;;;2094411;28;20025;-73
2021/12/10 01:04:34;;;;;;;90.60;42.00;;;1.60;99.90;;;;;;2097891;28;20024;-73
2021/12/10 01:05:36;;;;;;;89.63;40.95;;;1.50;99.90;;;;;;2094211;28;20013;-73
2021/12/10 01:06:40;;;;;;;90.22;42.25;;;1.50;99.90;;;;;;2086924;28;20024;-75
2021/12/10 01:07:43;;;;;;;86.07;41.50;;;1.50;99.90;;;;;;2087076;28;20158;-73
2021/12/10 01:08:46;;;;;;;89.00;42.25;;;1.50;99.90;;;;;;2092539;28;20100;-73
2021/12/10 01:09:50;;;;;;;90.05;42.30;;;1.60;99.90;;;;;;2094995;28;20033;-73
2021/12/10 01:10:59;;;;;;;86.82;41.22;;;1.60;99.90;;;;;;2093162;28;20033;-72
2021/12/10 01:12:07;;;;;;;91.57;42.47;;;1.60;99.90;;;;;;2097118;28;20025;-73
2021/12/10 01:13:15;;;;;;;82.88;39.83;;;1.60;99.90;;;;;;2093541;28;20040;-73
2021/12/10 01:14:26;;;;;;;86.47;40.63;;;1.60;99.90;;;;;;2088609;28;20091;-73
2021/12/10 01:15:42;;;;;;;86.28;41.22;;;1.60;99.90;;;;;;2077415;28;20141;-73
2021/12/10 01:23:52;;;;;;;86.10;38.72;;;1.50;99.90;;;;;;2093635;28;19919;-72
2021/12/10 01:26:39;;;;;;;85.85;39.08;;;1.50;99.90;;;;;;2094813;28;20479;-72
2021/12/10 01:27:32;;;;;;;83.53;39.03;;;1.50;99.90;;;;;;2092196;28;20400;-72
2021/12/10 01:28:33;;;;;;;88.75;40.42;;;1.50;99.90;;;;;;2095557;28;20549;-72
2021/12/10 01:29:43;;;;;;;85.15;40.30;;;1.50;99.90;;;;;;2093991;28;20055;-71
2021/12/10 01:30:44;;;;;;;86.57;40.83;;;1.50;99.90;;;;;;2096578;28;20686;-71
2021/12/10 01:31:45;;;;;;;89.47;41.03;;;1.50;99.90;;;;;;2097267;28;20596;-71
2021/12/10 01:33:01;;;;;;;89.10;41.47;;;1.60;99.90;;;;;;2094910;28;20027;-71
2021/12/10 01:34:03;;;;;;;84.55;40.40;;;1.60;99.90;;;;;;2094600;28;20024;-72
2021/12/10 01:35:11;;;;;;;80.35;38.75;;;1.60;99.90;;;;;;2095655;28;20148;-72
2021/12/10 01:36:13;;;;;;;82.93;39.95;;;1.50;99.90;;;;;;2096678;28;20028;-71
2021/12/10 01:37:13;;;;;;;81.80;38.75;;;1.50;99.90;;;;;;2091474;28;20036;-71
2021/12/10 01:38:16;;;;;;;85.05;40.45;;;1.50;99.90;;;;;;2097259;28;20025;-71
2021/12/10 01:39:21;;;;;;;83.35;39.47;;;1.50;99.90;;;;;;2091380;28;20029;-72
2021/12/10 01:40:25;;;;;;;82.53;39.80;;;1.60;99.90;;;;;;2095491;28;20115;-73
2021/12/10 01:41:33;;;;;;;78.13;38.30;;;1.60;99.90;;;;;;2095292;28;20063;-72
2021/12/10 01:42:42;;;;;;;80.72;38.00;;;1.60;99.90;;;;;;2095496;28;20029;-73
2021/12/10 01:43:47;;;;;;;78.65;37.92;;;1.60;99.90;;;;;;2095614;28;20021;-75
2021/12/10 01:44:51;;;;;;;85.40;39.00;;;1.60;99.90;;;;;;2093845;28;20032;-73
2021/12/10 01:46:05;;;;;;;78.72;38.20;;;1.60;99.90;;;;;;2096956;28;20404;-75
2021/12/10 01:47:08;;;;;;;83.45;39.42;;;1.60;99.90;;;;;;2095081;28;20526;-73
2021/12/10 01:48:12;;;;;;;79.95;38.05;;;1.60;99.90;;;;;;2096706;28;20042;-72
2021/12/10 01:49:13;;;;;;;80.47;39.95;;;1.60;99.90;;;;;;2091828;28;20037;-73
2021/12/10 01:50:15;;;;;;;81.60;39.10;;;1.60;99.90;;;;;;2089307;28;20115;-72
2021/12/10 01:51:18;;;;;;;77.85;38.72;;;1.60;99.90;;;;;;2084813;28;20151;-72
2021/12/10 01:52:20;;;;;;;79.90;38.65;;;1.60;99.90;;;;;;2096826;28;20043;-73
2021/12/10 01:53:23;;;;;;;82.18;38.45;;;1.60;99.90;;;;;;2092008;28;20037;-72
2021/12/10 01:54:28;;;;;;;80.15;38.60;;;1.60;99.90;;;;;;2097236;28;20026;-72
2021/12/10 01:55:33;;;;;;;77.32;37.28;;;1.60;99.90;;;;;;2097559;28;20028;-72
2021/12/10 01:56:36;;;;;;;75.43;36.92;;;1.60;99.90;;;;;;2088742;28;20553;-72
2021/12/10 01:57:38;;;;;;;76.53;36.58;;;1.70;99.90;;;;;;2089115;28;20021;-74
2021/12/10 01:58:39;;;;;;;78.72;37.83;;;1.60;99.90;;;;;;2093797;28;20032;-70
2021/12/10 01:59:42;;;;;;;77.43;37.65;;;1.60;99.90;;;;;;2089226;28;20048;-71
2021/12/10 02:00:53;;;;;;;80.25;38.40;;;1.70;99.90;;;;;;2090548;28;20082;-72
2021/12/10 02:01:56;;;;;;;;;;;1.70;99.90;;;;;;2095585;28;20044;-73
2021/12/10 02:02:57;;;;;;;77.63;35.75;;;1.70;99.90;;;;;;2086352;28;19904;-72
2021/12/10 02:04:00;;;;;;;75.93;37.33;;;1.70;99.90;;;;;;2079830;28;20029;-72
2021/12/10 02:05:04;;;;;;;79.65;37.55;;;1.70;99.90;;;;;;2085925;28;20083;-72
2021/12/10 02:06:07;;;;;;;78.90;38.38;;;1.70;99.90;;;;;;2088021;28;20024;-72
2021/12/10 02:07:11;;;;;;;77.03;36.55;;;1.70;99.90;;;;;;2082799;28;20734;-70
2021/12/10 02:08:12;;;;;;;80.70;38.20;;;1.70;99.90;;;;;;2096949;28;20024;-71
2021/12/10 02:09:12;;;;;;;76.18;36.58;;;1.60;99.90;;;;;;2095393;28;20029;-72
2021/12/10 02:10:17;;;;;;;74.97;35.55;;;1.60;99.90;;;;;;2097019;28;20032;-72
2021/12/10 02:11:19;;;;;;;74.88;36.67;;;1.70;99.90;;;;;;2091249;28;20119;-71
2021/12/10 02:12:20;;;;;;;81.05;37.80;;;1.70;99.90;;;;;;2096688;28;20070;-72
2021/12/10 02:13:20;;;;;;;79.82;38.20;;;1.60;99.90;;;;;;2093730;28;20059;-73
2021/12/10 02:14:22;;;;;;;75.07;36.80;;;1.70;99.90;;;;;;2096190;28;20511;-73
2021/12/10 02:15:26;;;;;;;78.70;37.53;;;1.60;99.90;;;;;;2092124;28;20103;-73
2021/12/10 02:16:27;;;;;;;76.90;37.25;;;1.70;99.90;;;;;;2096365;28;20477;-72
2021/12/10 02:17:36;;;;;;;77.82;36.45;;;1.70;99.90;;;;;;2096985;28;20032;-73
2021/12/10 02:18:38;;;;;;;81.32;37.13;;;1.60;99.90;;;;;;2094414;28;20373;-72
2021/12/10 02:19:39;;;;;;;80.35;37.65;;;1.60;99.90;;;;;;2093194;28;20029;-73
2021/12/10 02:20:52;;;;;;;79.35;37.50;;;1.60;99.90;;;;;;2092690;28;20064;-72
2021/12/10 02:21:54;;;;;;;75.03;35.95;;;1.60;99.90;;;;;;2095766;28;20626;-73
2021/12/10 02:22:55;;;;;;;75.28;36.05;;;1.60;99.90;;;;;;2091958;28;20033;-73
2021/12/10 02:23:58;;;;;;;74.70;35.53;;;1.60;99.90;;;;;;2095778;28;20036;-73
2021/12/10 02:24:59;;;;;;;73.93;35.40;;;1.60;99.90;;;;;;2095081;28;20027;-72
2021/12/10 02:26:04;;;;;;;74.38;36.35;;;1.60;99.90;;;;;;2096127;28;20454;-74
2021/12/10 02:27:07;;;;;;;73.35;35.65;;;1.60;99.90;;;;;;2080369;28;20068;-72
2021/12/10 02:28:10;;;;;;;76.75;36.83;;;1.60;99.90;;;;;;2088303;28;20041;-71
2021/12/10 02:29:13;;;;;;;72.60;35.85;;;1.60;99.90;;;;;;2091074;28;20037;-72
2021/12/10 02:30:15;;;;;;;74.60;37.13;;;1.60;99.90;;;;;;2096744;28;20033;-73
2021/12/10 02:31:17;;;;;;;75.63;36.33;;;1.50;99.90;;;;;;2094753;28;20025;-71
2021/12/10 02:32:18;;;;;;;69.88;35.95;;;1.50;99.90;;;;;;2087578;28;20168;-74
2021/12/10 02:33:19;;;;;;;70.50;36.05;;;1.50;99.90;;;;;;2083702;28;20448;-72
2021/12/10 02:34:20;;;;;;;71.15;35.72;;;1.50;99.90;;;;;;2096198;28;20039;-73
2021/12/10 02:35:21;;;;;;;69.07;34.97;;;1.50;99.90;;;;;;2094598;28;20815;-73
2021/12/10 02:36:23;;;;;;;69.85;35.47;;;1.60;99.90;;;;;;2095371;28;20032;-73
2021/12/10 02:37:24;;;;;;;68.78;35.08;;;1.60;99.90;;;;;;2082440;28;20017;-73
2021/12/10 02:38:25;;;;;;;67.88;34.50;;;1.60;99.90;;;;;;2086653;28;20017;-73
2021/12/10 02:39:27;;;;;;;71.35;35.22;;;1.60;99.90;;;;;;2090621;28;20559;-72
2021/12/10 02:40:29;;;;;;;70.80;35.25;;;1.50;99.90;;;;;;2093765;28;20028;-73
2021/12/10 02:41:31;;;;;;;67.13;34.20;;;1.60;99.90;;;;;;2091610;28;20159;-73
2021/12/10 02:42:31;;;;;;;66.07;33.63;;;1.60;99.90;;;;;;2094579;28;20020;-73
2021/12/10 02:43:32;;;;;;;69.40;34.45;;;1.60;99.90;;;;;;2100568;28;20689;-73
2021/12/10 02:44:33;;;;;;;64.40;34.03;;;1.60;99.90;;;;;;2094282;28;20065;-73
2021/12/10 02:45:35;;;;;;;65.07;33.20;;;1.60;99.90;;;;;;2087850;28;20539;-73
2021/12/10 02:46:36;;;;;;;63.28;33.22;;;1.60;99.90;;;;;;2095988;28;20078;-72
2021/12/10 02:47:37;;;;;;;68.25;34.47;;;1.60;99.90;;;;;;2096622;28;20078;-72
2021/12/10 02:48:38;;;;;;;65.22;33.97;;;1.60;99.90;;;;;;2093399;28;20025;-73
2021/12/10 02:49:40;;;;;;;64.93;33.83;;;1.60;99.90;;;;;;2077915;28;20404;-72
2021/12/10 02:50:43;;;;;;;65.03;33.67;;;1.60;99.90;;;;;;2079434;28;20033;-71
2021/12/10 02:51:44;;;;;;;64.70;33.88;;;1.60;99.90;;;;;;2071287;28;20038;-72
2021/12/10 02:52:46;;;;;;;60.47;31.92;;;1.60;99.90;;;;;;2084968;28;20045;-72
2021/12/10 02:53:46;;;;;;;66.72;34.03;;;1.60;99.90;;;;;;2095868;28;20578;-72
2021/12/10 02:54:47;;;;;;;60.13;32.55;;;1.60;99.90;;;;;;2095748;28;20032;-71
2021/12/10 02:55:48;;;;;;;61.80;32.58;;;1.60;99.90;;;;;;2096172;28;20035;-71
2021/12/10 02:56:50;;;;;;;61.25;31.60;;;1.60;99.90;;;;;;2083389;28;20515;-72
2021/12/10 02:57:54;;;;;;;60.65;32.08;;;1.50;99.90;;;;;;2086699;28;20073;-72
2021/12/10 02:58:58;;;;;;;59.97;31.15;;;1.50;99.90;;;;;;2096374;28;20017;-73
2021/12/10 02:59:59;;;;;;;60.47;32.55;;;1.50;99.90;;;;;;2096666;28;20033;-73
2021/12/10 03:01:09;;;;;;;63.78;32.67;;;1.50;99.90;;;;;;2085658;28;20095;-72
2021/12/10 03:02:14;;;;;;;61.42;31.67;;;1.50;99.90;;;;;;2084011;28;20044;-73
2021/12/10 03:03:15;;;;;;;62.28;32.70;;;1.50;99.90;;;;;;2090380;28;20484;-72
2021/12/10 03:04:16;;;;;;;64.63;33.10;;;1.50;99.90;;;;;;2095931;28;20152;-72
2021/12/10 03:05:16;;;;;;;59.63;31.92;;;1.50;99.90;;;;;;2091198;28;20491;-73
2021/12/10 03:06:18;;;;;;;62.35;31.67;;;1.50;99.90;;;;;;2096930;28;20151;-72
2021/12/10 03:07:21;;;;;;;59.92;31.75;;;1.50;99.90;;;;;;2094408;28;20074;-73
2021/12/10 03:08:22;;;;;;;60.80;31.52;;;1.50;99.90;;;;;;2095338;28;20171;-73
2021/12/10 03:09:24;;;;;;;61.17;32.88;;;1.50;99.90;;;;;;2091607;28;20733;-75
2021/12/10 03:10:31;;;;;;;61.72;32.80;;;1.50;99.90;;;;;;2096413;28;20032;-72
2021/12/10 03:11:35;;;;;;;60.40;31.98;;;1.50;99.90;;;;;;2096730;28;20025;-73
2021/12/10 03:12:35;;;;;;;62.85;32.13;;;1.50;99.90;;;;;;2094499;28;20017;-73
2021/12/10 03:13:36;;;;;;;62.10;33.08;;;1.50;99.90;;;;;;2093182;28;20128;-73
2021/12/10 03:14:39;;;;;;;61.75;31.92;;;1.50;99.90;;;;;;2078758;28;20053;-73
2021/12/10 03:15:41;;;;;;;58.53;31.38;;;1.50;99.90;;;;;;2085369;28;20045;-72
2021/12/10 03:16:45;;;;;;;59.78;31.60;;;1.50;99.90;;;;;;2093574;28;20025;-73
2021/12/10 03:17:46;;;;;;;58.88;31.05;;;1.50;99.90;;;;;;2088948;28;20079;-73
2021/12/10 03:18:47;;;;;;;58.25;30.73;;;1.50;99.90;;;;;;2095113;28;20040;-73
2021/12/10 03:19:48;;;;;;;63.42;32.72;;;1.50;99.90;;;;;;2096789;28;20040;-75
2021/12/10 03:20:49;;;;;;;59.65;31.60;;;1.50;99.90;;;;;;2091942;28;20032;-74
2021/12/10 03:21:51;;;;;;;59.60;31.55;;;1.50;99.90;;;;;;2094228;28;20078;-73
2021/12/10 03:22:52;;;;;;;58.20;30.85;;;1.50;99.90;;;;;;2095548;28;20071;-74
2021/12/10 03:23:52;;;;;;;57.53;30.52;;;1.50;99.90;;;;;;2096692;28;20671;-73
2021/12/10 03:24:53;;;;;;;60.88;32.20;;;1.50;99.90;;;;;;2096919;28;20020;-73
2021/12/10 03:25:54;;;;;;;61.70;32.50;;;1.50;99.90;;;;;;2096023;28;20119;-73
2021/12/10 03:26:58;;;;;;;60.95;31.88;;;1.40;99.90;;;;;;2096303;28;20033;-73
2021/12/10 03:27:59;;;;;;;60.40;31.50;;;1.50;99.90;;;;;;2096789;28;20036;-75
2021/12/10 03:29:00;;;;;;;60.50;32.05;;;1.50;99.90;;;;;;2095883;28;20033;-72
2021/12/10 03:30:03;;;;;;;59.67;31.75;;;1.50;99.90;;;;;;2096962;28;20107;-72
2021/12/10 03:31:04;;;;;;;61.80;32.20;;;1.50;99.90;;;;;;2092100;28;20029;-73
2021/12/10 03:32:08;;;;;;;60.25;31.13;;;1.50;99.90;;;;;;2097497;28;20085;-73
2021/12/10 03:33:09;;;;;;;61.38;32.22;;;1.50;99.90;;;;;;2086092;28;20088;-73
2021/12/10 03:34:10;;;;;;;62.20;32.67;;;1.50;99.90;;;;;;2090538;28;20052;-71
2021/12/10 03:35:20;;;;;;;60.63;32.00;;;1.50;99.90;;;;;;2092018;28;20053;-74
2021/12/10 03:36:22;;;;;;;59.75;32.70;;;1.50;99.90;;;;;;2097297;28;20435;-73
2021/12/10 03:37:23;;;;;;;60.90;31.65;;;1.50;99.90;;;;;;2094247;28;20032;-70
2021/12/10 03:38:25;;;;;;;59.15;31.95;;;1.50;99.90;;;;;;2100727;28;20028;-71
2021/12/10 03:39:27;;;;;;;55.30;29.90;;;1.50;99.90;;;;;;2094128;28;20059;-73
2021/12/10 03:40:27;;;;;;;57.33;30.63;;;1.50;99.90;;;;;;2096069;28;20028;-72
2021/12/10 03:41:28;;;;;;;61.47;32.28;;;1.50;99.90;;;;;;2076591;28;20558;-72
2021/12/10 03:42:29;;;;;;;60.97;31.45;;;1.60;99.90;;;;;;2090064;28;20072;-72
2021/12/10 03:43:30;;;;;;;58.42;31.42;;;1.50;99.90;;;;;;2106187;28;20490;-72
2021/12/10 03:44:30;;;;;;;58.13;30.70;;;1.60;99.90;;;;;;2097095;28;20388;-72
2021/12/10 03:45:35;;;;;;;57.92;31.13;;;1.60;99.90;;;;;;2097997;28;20133;-73
2021/12/10 03:46:36;;;;;;;61.53;32.22;;;1.60;99.90;;;;;;2096155;28;20024;-73
2021/12/10 03:47:38;;;;;;;60.00;31.60;;;1.60;99.90;;;;;;2097019;28;20039;-72
2021/12/10 03:48:41;;;;;;;60.78;31.55;;;1.50;99.90;;;;;;2100880;28;20040;-72
2021/12/10 03:49:42;;;;;;;60.70;31.90;;;1.50;99.90;;;;;;2101632;28;20042;-73
2021/12/10 03:50:45;;;;;;;58.80;31.40;;;1.50;99.90;;;;;;2097583;28;20123;-71
2021/12/10 03:51:46;;;;;;;60.47;32.00;;;1.50;99.90;;;;;;2088642;28;20481;-71
2021/12/10 03:52:46;;;;;;;57.55;31.40;;;1.50;99.90;;;;;;2085308;28;20136;-71
2021/12/10 03:53:47;;;;;;;58.65;30.35;;;1.50;99.90;;;;;;2097412;28;20418;-72
2021/12/10 03:54:48;;;;;;;59.20;31.10;;;1.40;99.90;;;;;;2096060;28;20033;-73
2021/12/10 03:55:51;;;;;;;60.03;31.20;;;1.50;99.90;;;;;;2097936;28;20064;-72
2021/12/10 03:56:52;;;;;;;58.42;30.75;;;1.40;99.90;;;;;;2092511;28;20056;-73
2021/12/10 03:57:54;;;;;;;60.45;30.98;;;1.40;99.90;;;;;;2095992;28;20028;-73
2021/12/10 03:58:59;;;;;;;59.28;31.08;;;1.40;99.90;;;;;;2092890;28;20021;-73
2021/12/10 03:59:59;;;;;;;58.00;30.50;;;1.40;99.90;;;;;;2097886;28;20029;-73
2021/12/10 04:01:04;;;;;;;59.58;31.70;;;1.40;99.90;;;;;;2090646;28;20021;-73
2021/12/10 04:02:08;;;;;;;60.15;30.98;;;1.40;99.90;;;;;;2074121;28;20505;-73
2021/12/10 04:03:10;;;;;;;61.75;33.17;;;1.40;99.90;;;;;;2088704;28;20111;-73
2021/12/10 04:04:17;;;;;;;63.22;32.72;;;1.40;99.90;;;;;;2097406;28;20425;-73
2021/12/10 04:05:18;;;;;;;63.42;32.83;;;1.30;99.90;;;;;;2076000;28;20040;-72
2021/12/10 04:06:20;;;;;;;60.05;32.17;;;1.30;99.90;;;;;;2087171;28;20494;-72
2021/12/10 04:07:24;;;;;;;61.65;32.00;;;1.30;99.90;;;;;;2092719;28;20844;-72
2021/12/10 04:08:25;;;;;;;62.55;32.78;;;1.30;99.90;;;;;;2097197;28;20511;-72
2021/12/10 04:09:26;;;;;;;61.42;31.92;;;1.30;99.90;;;;;;2093147;28;20028;-72
2021/12/10 04:10:27;;;;;;;60.72;32.03;;;1.30;99.90;;;;;;2095878;28;20069;-72
2021/12/10 04:11:29;;;;;;;64.45;33.70;;;1.30;99.90;;;;;;2076320;28;20025;-70
2021/12/10 04:12:29;;;;;;;60.13;31.30;;;1.30;99.90;;;;;;2087467;28;20075;-72
2021/12/10 04:13:30;;;;;;;61.50;32.03;;;1.20;99.90;;;;;;2095449;28;20442;-72
2021/12/10 04:14:31;;;;;;;62.03;32.63;;;1.20;99.90;;;;;;2095914;28;20032;-72
2021/12/10 04:15:34;;;;;;;63.47;32.67;;;1.20;99.90;;;;;;2096896;28;20032;-72
2021/12/10 04:16:36;;;;;;;58.45;30.88;;;1.20;99.90;;;;;;2096115;28;20436;-71
2021/12/10 04:17:38;;;;;;;60.63;31.35;;;1.20;99.90;;;;;;2089290;28;20032;-72
2021/12/10 04:18:39;;;;;;;60.35;31.38;;;1.20;99.90;;;;;;2083670;28;20033;-72
2021/12/10 04:19:41;;;;;;;57.25;30.95;;;1.20;99.90;;;;;;2094232;28;20082;-72
2021/12/10 04:20:43;;;;;;;62.97;31.98;;;1.20;99.90;;;;;;2101769;28;20353;-72
2021/12/10 04:21:44;;;;;;;59.97;31.88;;;1.20;99.90;;;;;;2096536;28;20088;-72
2021/12/10 04:22:46;;;;;;;60.45;31.13;;;1.20;99.90;;;;;;2093993;28;20027;-73
2021/12/10 04:23:47;;;;;;;57.90;31.13;;;1.20;99.90;;;;;;2095287;28;20029;-72
2021/12/10 04:24:49;;;;;;;54.05;29.65;;;1.20;99.90;;;;;;2093158;28;20120;-72
2021/12/10 04:25:50;;;;;;;58.53;30.45;;;1.20;99.90;;;;;;2089347;28;20044;-73
2021/12/10 04:26:51;;;;;;;55.78;29.98;;;1.20;99.90;;;;;;2097329;28;20033;-72
2021/12/10 04:27:56;;;;;;;55.05;29.75;;;1.20;99.90;;;;;;2098098;28;20025;-72
2021/12/10 04:28:57;;;;;;;53.15;29.17;;;1.10;99.90;;;;;;2097356;28;20029;-72
2021/12/10 04:29:58;;;;;;;52.92;28.65;;;1.10;99.90;;;;;;2089068;28;20035;-71
2021/12/10 04:30:59;;;;;;;52.88;28.75;;;1.20;99.90;;;;;;2088941;28;20611;-72
2021/12/10 04:32:00;;;;;;;51.88;28.00;;;1.10;99.90;;;;;;2088861;28;20069;-71
2021/12/10 04:33:03;;;;;;;49.95;27.33;;;1.20;99.90;;;;;;2086955;28;20025;-72
2021/12/10 04:34:04;;;;;;;48.70;26.65;;;1.20;99.90;;;;;;2097365;28;20031;-72
2021/12/10 04:35:05;;;;;;;47.25;26.45;;;1.20;99.90;;;;;;2093672;28;20744;-72
2021/12/10 04:36:07;;;;;;;47.63;26.58;;;1.20;99.90;;;;;;2097166;28;20353;-73
2021/12/10 04:37:10;;;;;;;49.83;27.02;;;1.20;99.90;;;;;;2097980;28;20446;-72
2021/12/10 04:38:12;;;;;;;53.22;27.80;;;1.20;99.90;;;;;;2098069;28;20035;-73
2021/12/10 04:39:13;;;;;;;50.40;28.17;;;1.20;99.90;;;;;;2098025;28;20659;-72
2021/12/10 04:40:17;;;;;;;52.22;28.92;;;1.20;99.90;;;;;;2097855;28;20024;-71
2021/12/10 04:41:18;;;;;;;52.65;28.23;;;1.20;99.90;;;;;;2090801;28;20160;-71
2021/12/10 04:42:24;;;;;;;53.38;28.88;;;1.20;99.90;;;;;;2096489;28;20372;-72
2021/12/10 04:43:24;;;;;;;53.35;28.75;;;1.20;99.90;;;;;;2094751;28;20574;-72
2021/12/10 04:44:25;;;;;;;48.95;27.90;;;1.30;99.90;;;;;;2096006;28;20031;-72
2021/12/10 04:45:26;;;;;;;52.30;27.58;;;1.30;99.90;;;;;;2092539;28;20546;-72
2021/12/10 04:46:27;;;;;;;49.22;26.95;;;1.30;99.90;;;;;;2104044;28;20103;-71
2021/12/10 04:47:28;;;;;;;48.22;26.98;;;1.30;99.90;;;;;;2092512;28;20036;-71
2021/12/10 04:48:41;;;;;;;44.50;25.73;;;1.30;99.90;;;;;;2088875;28;20483;-71
2021/12/10 04:49:41;;;;;;;50.08;26.27;;;1.40;99.90;;;;;;2096904;28;20025;-71
2021/12/10 04:50:42;;;;;;;47.50;27.25;;;1.40;99.90;;;;;;2093210;28;20044;-71
2021/12/10 04:51:47;;;;;;;46.75;25.83;;;1.40;99.90;;;;;;2096541;28;20048;-71
2021/12/10 04:52:48;;;;;;;43.88;24.35;;;1.40;99.90;;;;;;2087374;28;20037;-71
2021/12/10 04:53:51;;;;;;;44.47;25.13;;;1.40;99.90;;;;;;2089148;28;20164;-72
2021/12/10 04:54:51;;;;;;;43.88;25.00;;;1.50;99.90;;;;;;2092955;28;20029;-72
2021/12/10 04:55:52;;;;;;;44.38;24.75;;;1.50;99.90;;;;;;2096428;28;20090;-72
2021/12/10 04:56:58;;;;;;;43.35;24.88;;;1.50;99.90;;;;;;2092631;28;20091;-72
2021/12/10 04:57:59;;;;;;;46.13;26.05;;;1.50;99.90;;;;;;2097565;28;20409;-72
2021/12/10 04:59:01;;;;;;;40.85;24.25;;;1.50;99.90;;;;;;2097747;28;20040;-71
2021/12/10 05:00:05;;;;;;;42.85;24.70;;;1.50;99.90;;;;;;2099346;28;20024;-71
2021/12/10 05:01:06;;;;;;;46.38;25.67;;;1.50;99.90;;;;;;2098531;28;20028;-71
2021/12/10 05:02:10;;;;;;;42.47;24.85;;;1.50;99.90;;;;;;2096832;28;20068;-70
2021/12/10 05:03:12;;;;;;;41.55;24.30;;;1.60;99.90;;;;;;2092625;28;20032;-72
2021/12/10 05:04:14;;;;;;;44.65;24.50;;;1.50;99.90;;;;;;2097106;28;20036;-72
2021/12/10 05:05:15;;;;;;;45.25;26.10;;;1.60;99.90;;;;;;2091988;28;20191;-71
2021/12/10 05:06:16;;;;;;;46.92;26.98;;;1.60;99.90;;;;;;2097436;28;20488;-73
2021/12/10 05:07:17;;;;;;;45.30;26.42;;;1.60;99.90;;;;;;2091582;28;20060;-72
2021/12/10 05:08:18;;;;;;;45.70;26.33;;;1.60;99.90;;;;;;2097586;28;20033;-70
2021/12/10 05:09:20;;;;;;;45.53;25.52;;;1.60;99.90;;;;;;2091977;28;20033;-72
2021/12/10 05:10:22;;;;;;;44.47;25.85;;;1.60;99.90;;;;;;2096866;28;20043;-72
2021/12/10 05:11:22;;;;;;;43.47;25.98;;;1.60;99.90;;;;;;2093961;28;20024;-72
2021/12/10 05:12:23;;;;;;;44.72;26.23;;;1.60;99.90;;;;;;2096428;28;20503;-72
2021/12/10 05:13:24;;;;;;;44.88;26.30;;;1.60;99.90;;;;;;2095046;28;20033;-72
2021/12/10 05:14:25;;;;;;;48.05;26.73;;;1.60;99.90;;;;;;2096256;28;20024;-72
2021/12/10 05:15:30;;;;;;;42.58;25.65;;;1.60;99.90;;;;;;2097664;28;20152;-73
2021/12/10 05:16:31;;;;;;;44.00;25.48;;;1.60;99.90;;;;;;2095703;28;20508;-72
2021/12/10 05:17:34;;;;;;;42.75;25.30;;;1.60;99.90;;;;;;2093280;28;20479;-72
2021/12/10 05:18:37;;;;;;;42.45;24.48;;;1.60;99.90;;;;;;2094332;28;20444;-72
2021/12/10 05:19:39;;;;;;;42.72;24.35;;;1.60;99.90;;;;;;2095577;28;20020;-72
2021/12/10 05:20:43;;;;;;;40.22;23.55;;;1.60;99.90;;;;;;2093785;28;20021;-71
2021/12/10 05:21:46;;;;;;;41.83;23.80;;;1.60;99.90;;;;;;2096326;28;20055;-71
2021/12/10 05:22:48;;;;;;;40.08;23.65;;;1.60;99.90;;;;;;2093622;28;20084;-72
2021/12/10 05:23:49;;;;;;;42.58;23.77;;;1.60;99.90;;;;;;2095301;28;20519;-72
2021/12/10 05:24:49;;;;;;;40.65;23.70;;;1.60;99.90;;;;;;2084810;28;20042;-72
2021/12/10 05:25:51;;;;;;;39.67;23.73;;;1.70;99.90;;;;;;2096608;28;20077;-71
2021/12/10 05:26:54;;;;;;;37.50;22.58;;;1.60;99.90;;;;;;2091775;28;20471;-72
2021/12/10 05:27:56;;;;;;;39.50;23.67;;;1.60;99.90;;;;;;2096127;28;20036;-73
2021/12/10 05:28:58;;;;;;;40.22;23.42;;;1.60;99.90;;;;;;2092362;28;20025;-71
2021/12/10 05:29:58;;;;;;;38.08;23.33;;;1.60;99.90;;;;;;2097624;28;20040;-72
2021/12/10 05:31:00;;;;;;;38.17;23.10;;;1.60;99.90;;;;;;2091436;28;20025;-72
2021/12/10 05:32:00;;;;;;;39.72;23.52;;;1.60;99.90;;;;;;2096488;28;20063;-73